createdAt,value
2019-04-26T08:14:28.300Z,65.6494
2019-04-26T08:14:28.300Z,65.8569
2019-04-26T08:14:30.198Z,65.5518
2019-04-26T08:14:39.223Z,65.4480
2019-04-26T08:14:50.256Z,65.7532
2019-04-26T08:14:59.244Z,65.6494
2019-04-26T08:15:11.299Z,65.6494
2019-04-26T08:15:19.203Z,65.3442
2019-04-26T08:15:30.231Z,65.3442
2019-04-26T08:15:39.235Z,65.3442
2019-04-26T08:15:49.217Z,65.5518
2019-04-26T08:16:00.244Z,66.1621
2019-04-26T08:27:08.754Z,82.9834
2019-04-26T08:27:30.312Z,83.3984
2019-04-26T08:27:39.832Z,83.1909
2019-04-26T08:27:49.295Z,83.1909
2019-04-26T08:28:00.248Z,82.9834
2019-04-26T08:28:09.977Z,83.0872
2019-04-26T08:28:20.293Z,83.0872
2019-04-26T08:28:29.399Z,83.2947
2019-04-26T08:28:40.260Z,84.5337
2019-04-26T08:28:49.291Z,85.6689
2019-04-26T08:29:00.707Z,86.1816
2019-04-26T08:29:10.501Z,86.0413
2019-04-26T08:29:20.236Z,85.5225
2019-04-26T08:29:29.877Z,84.6985
2019-04-26T08:29:50.284Z,82.5378
2019-04-26T08:30:03.447Z,82.5378
2019-04-26T08:30:14.459Z,82.8430
2019-04-26T08:30:19.798Z,83.3618
2019-04-26T08:30:30.268Z,83.3618
2019-04-26T08:30:59.266Z,83.2581
2019-04-26T08:31:10.895Z,83.1909
2019-04-26T08:31:21.235Z,83.5022
2019-04-26T08:31:30.254Z,83.9783
2019-04-26T08:31:39.301Z,83.9783
2019-04-26T08:31:59.306Z,84.3933
2019-04-26T08:32:19.439Z,84.4299
2019-04-26T08:32:32.147Z,84.1187
2019-04-26T08:32:40.258Z,84.0149
2019-04-26T08:32:49.242Z,83.6670
2019-04-26T08:33:12.839Z,82.9468
2019-04-26T08:33:29.262Z,82.5378
2019-04-26T08:34:00.386Z,82.2266
2019-04-26T08:34:10.122Z,82.0190
2019-04-26T08:34:21.135Z,81.9153
2019-04-26T08:34:33.642Z,82.0190
2019-04-26T08:34:49.351Z,82.2266
2019-04-26T08:35:16.075Z,81.9153
2019-04-26T08:35:40.107Z,83.8745
2019-04-26T08:35:59.388Z,81.9153
2019-04-26T08:36:10.571Z,81.6101
2019-04-26T08:36:40.081Z,82.5378
2019-04-26T08:36:50.367Z,82.4341
2019-04-26T08:37:01.922Z,82.8430
2019-04-26T08:37:10.486Z,82.5378
2019-04-26T08:37:19.357Z,82.2266
2019-04-26T08:37:39.274Z,82.3669
2019-04-26T08:37:59.248Z,82.5745
2019-04-26T08:38:39.287Z,83.9111
2019-04-26T08:38:52.636Z,83.8135
2019-04-26T08:39:00.273Z,83.6060
2019-04-26T08:39:24.563Z,83.2947
2019-04-26T08:39:44.269Z,83.1909
2019-04-26T08:39:45.098Z,83.3984
2019-04-26T08:39:51.875Z,83.9111
2019-04-26T08:40:00.331Z,83.6060
2019-04-26T08:40:09.259Z,83.2947
2019-04-26T08:40:26.392Z,83.1909
2019-04-26T08:40:31.339Z,83.1299
2019-04-26T08:40:40.304Z,83.3313
2019-04-26T08:40:49.285Z,83.5388
2019-04-26T08:41:04.846Z,83.6426
2019-04-26T08:41:11.581Z,83.7463
2019-04-26T08:41:19.278Z,83.8501
2019-04-26T08:41:30.248Z,83.8501
2019-04-26T08:41:40.192Z,84.1614
2019-04-26T08:41:59.270Z,84.1614
2019-04-26T08:42:18.229Z,84.3628
2019-04-26T08:42:23.237Z,84.4055
2019-04-26T08:42:30.257Z,84.4055
2019-04-26T08:42:39.258Z,84.3628
2019-04-26T08:42:53.308Z,84.1980
2019-04-26T08:42:59.215Z,84.1980
2019-04-26T08:43:20.168Z,84.3628
2019-04-26T08:43:31.916Z,84.8816
2019-04-26T08:43:40.269Z,85.2966
2019-04-26T08:43:51.296Z,85.4980
2019-04-26T08:44:03.631Z,86.1206
2019-04-26T08:44:09.733Z,86.9446
2019-04-26T08:44:34.553Z,86.1816
2019-04-26T08:44:40.253Z,85.6689
2019-04-26T08:44:51.092Z,85.4614
2019-04-26T08:45:00.251Z,84.9426
2019-04-26T08:45:12.474Z,84.4299
2019-04-26T08:45:20.236Z,83.9111
2019-04-26T08:45:29.238Z,83.7463
2019-04-26T08:46:01.705Z,84.5703
2019-04-26T08:46:12.580Z,84.4666
2019-04-26T08:46:21.295Z,83.9539
2019-04-26T08:46:32.209Z,83.6426
2019-04-26T08:46:39.449Z,83.3313
2019-04-26T08:46:49.515Z,83.3313
2019-04-26T08:47:00.299Z,83.4351
2019-04-26T08:47:14.222Z,83.4351
2019-04-26T08:47:24.517Z,83.5388
2019-04-26T08:47:30.265Z,83.4351
2019-04-26T08:47:40.990Z,83.7463
2019-04-26T08:47:53.409Z,84.2651
2019-04-26T08:47:59.423Z,84.8816
2019-04-26T08:48:10.447Z,84.6741
2019-04-26T08:48:22.393Z,84.5703
2019-04-26T08:48:41.516Z,84.3628
2019-04-26T08:48:51.949Z,84.3628
2019-04-26T08:49:02.185Z,84.3628
2019-04-26T08:49:09.642Z,84.5703
2019-04-26T08:49:20.272Z,84.7778
2019-04-26T08:49:29.358Z,84.5703
2019-04-26T08:49:49.296Z,84.9854
2019-04-26T08:49:59.285Z,84.9854
2019-04-26T08:50:12.218Z,85.3943
2019-04-26T08:50:20.756Z,85.1929
2019-04-26T08:50:29.290Z,85.2966
2019-04-26T08:50:42.234Z,85.7056
2019-04-26T08:50:50.136Z,86.4258
2019-04-26T08:51:10.856Z,86.2854
2019-04-26T08:51:24.738Z,85.8704
2019-04-26T08:51:37.048Z,85.4614
2019-04-26T08:51:39.659Z,85.0464
2019-04-26T08:52:01.206Z,84.0149
2019-04-26T08:52:14.666Z,83.7097
2019-04-26T08:52:30.298Z,83.5022
2019-04-26T08:52:39.248Z,83.7097
2019-04-26T08:52:50.267Z,83.9539
2019-04-26T08:52:59.269Z,84.1614
2019-04-26T08:53:10.248Z,84.4299
2019-04-26T08:53:19.264Z,84.2224
2019-04-26T08:53:31.242Z,83.9539
2019-04-26T08:53:39.335Z,84.0149
2019-04-26T08:54:00.408Z,84.0576
2019-04-26T08:54:09.278Z,83.9539
2019-04-26T08:54:19.480Z,84.3262
2019-04-26T08:54:29.263Z,84.6741
2019-04-26T08:54:40.278Z,84.9854
2019-04-26T08:54:49.321Z,85.1929
2019-04-26T08:55:09.309Z,84.8816
2019-04-26T08:55:20.297Z,84.7412
2019-04-26T08:55:29.267Z,84.9426
2019-04-26T08:55:40.016Z,84.8389
2019-04-26T08:55:49.280Z,84.9426
2019-04-26T08:56:00.293Z,85.3577
2019-04-26T08:56:11.626Z,85.6689
2019-04-26T08:56:29.255Z,85.2539
2019-04-26T08:56:41.300Z,85.0464
2019-04-26T08:56:50.255Z,85.1501
2019-04-26T08:57:01.299Z,85.8704
2019-04-26T08:57:10.230Z,86.1816
2019-04-26T08:57:19.270Z,86.0779
2019-04-26T08:57:40.776Z,84.9854
2019-04-26T08:57:50.221Z,84.9854
2019-04-26T08:57:59.324Z,85.2966
2019-04-26T08:58:10.294Z,85.7056
2019-04-26T08:58:19.273Z,85.8093
2019-04-26T08:58:30.239Z,85.7056
2019-04-26T08:58:39.308Z,85.8093
2019-04-26T08:58:59.306Z,86.1206
2019-04-26T08:59:10.276Z,86.4258
2019-04-26T08:59:19.257Z,86.3220
2019-04-26T08:59:31.322Z,85.7056
2019-04-26T08:59:39.266Z,85.2966
2019-04-26T08:59:51.277Z,84.9854
2019-04-26T09:00:00.241Z,84.8816
2019-04-26T09:00:20.232Z,85.2966
2019-04-26T09:00:29.238Z,85.4980
2019-04-26T09:00:40.258Z,85.6018
2019-04-26T09:00:49.291Z,85.7056
2019-04-26T09:01:00.258Z,85.9131
2019-04-26T09:01:09.276Z,85.8093
2019-04-26T09:01:20.241Z,85.4980
2019-04-26T09:01:29.329Z,85.3943
2019-04-26T09:01:41.976Z,85.2966
2019-04-26T09:01:49.288Z,85.2966
2019-04-26T09:02:00.317Z,85.9131
2019-04-26T09:02:09.238Z,86.0168
2019-04-26T09:02:20.297Z,85.8093
2019-04-26T09:02:29.381Z,85.7056
2019-04-26T09:02:49.478Z,87.4573
2019-04-26T09:03:10.892Z,88.1836
2019-04-26T09:03:11.632Z,87.9761
2019-04-26T09:03:21.229Z,88.1836
2019-04-26T09:03:32.413Z,88.5925
2019-04-26T09:03:39.296Z,88.4521
2019-04-26T09:03:59.268Z,86.5967
2019-04-26T09:04:10.281Z,86.3892
2019-04-26T09:04:19.269Z,86.1816
2019-04-26T09:04:30.264Z,85.8704
2019-04-26T09:04:39.367Z,85.8093
2019-04-26T09:04:50.333Z,85.9131
2019-04-26T09:04:59.478Z,86.4929
2019-04-26T09:05:19.379Z,87.9333
2019-04-26T09:05:30.277Z,87.3169
2019-04-26T09:05:39.252Z,87.0056
2019-04-26T09:05:59.536Z,86.9019
2019-04-26T09:06:11.369Z,86.9019
2019-04-26T09:06:19.249Z,86.4929
2019-04-26T09:06:31.271Z,85.9741
2019-04-26T09:06:40.373Z,85.6689
2019-04-26T09:06:49.308Z,85.4614
2019-04-26T09:07:00.280Z,85.1501
2019-04-26T09:07:09.333Z,84.9426
2019-04-26T09:07:20.239Z,84.8389
2019-04-26T09:07:29.292Z,84.8389
2019-04-26T09:07:39.715Z,85.0464
2019-04-26T09:07:49.308Z,85.0464
2019-04-26T09:08:00.274Z,84.9426
2019-04-26T09:08:09.248Z,85.0464
2019-04-26T09:08:29.291Z,85.1501
2019-04-26T09:08:43.489Z,85.1501
2019-04-26T09:08:49.283Z,85.2966
2019-04-26T09:09:00.279Z,85.6689
2019-04-26T09:09:09.235Z,85.8704
2019-04-26T09:09:21.268Z,85.6689
2019-04-26T09:09:32.316Z,85.3577
2019-04-26T09:09:57.021Z,85.4614
2019-04-26T09:10:01.586Z,85.2539
2019-04-26T09:10:11.218Z,84.6375
2019-04-26T09:10:19.260Z,84.2224
2019-04-26T09:10:30.231Z,84.1187
2019-04-26T09:10:42.970Z,84.3262
2019-04-26T09:10:50.261Z,84.3262
2019-04-26T09:10:59.337Z,84.4299
2019-04-26T09:11:22.539Z,84.6741
2019-04-26T09:11:25.945Z,84.6375
2019-04-26T09:11:33.840Z,84.6375
2019-04-26T09:11:39.306Z,84.9426
2019-04-26T09:11:59.595Z,85.1501
2019-04-26T09:12:00.107Z,85.2539
2019-04-26T09:12:22.491Z,85.3577
2019-04-26T09:12:23.302Z,85.3943
2019-04-26T09:12:40.236Z,85.2966
2019-04-26T09:12:49.538Z,85.1929
2019-04-26T09:13:00.322Z,85.1929
2019-04-26T09:13:09.288Z,84.9854
2019-04-26T09:13:20.257Z,84.8816
2019-04-26T09:13:30.326Z,84.9854
2019-04-26T09:13:40.268Z,84.9854
2019-04-26T09:13:50.047Z,84.7778
2019-04-26T09:14:00.272Z,84.6741
2019-04-26T09:14:09.272Z,84.4666
2019-04-26T09:14:20.256Z,84.4666
2019-04-26T09:14:29.348Z,84.4666
2019-04-26T09:14:40.256Z,84.3628
2019-04-26T09:14:49.266Z,84.3628
2019-04-26T09:15:00.248Z,84.4666
2019-04-26T09:15:09.313Z,84.8816
2019-04-26T09:15:29.242Z,85.9131
2019-04-26T09:15:41.268Z,86.5295
2019-04-26T09:15:50.264Z,86.6333
2019-04-26T09:16:01.392Z,86.6333
2019-04-26T09:16:10.366Z,86.2244
2019-04-26T09:16:19.335Z,85.9741
2019-04-26T09:16:30.439Z,85.7727
2019-04-26T09:16:49.807Z,85.4614
2019-04-26T09:16:59.315Z,85.1929
2019-04-26T09:17:10.345Z,85.2539
2019-04-26T09:17:19.295Z,85.1929
2019-04-26T09:17:39.270Z,85.4980
2019-04-26T09:17:50.218Z,85.9131
2019-04-26T09:18:02.169Z,86.0168
2019-04-26T09:18:10.276Z,86.2244
2019-04-26T09:18:19.289Z,86.0168
2019-04-26T09:18:43.391Z,85.3943
2019-04-26T09:18:54.184Z,85.8093
2019-04-26T09:18:59.878Z,86.1206
2019-04-26T09:19:09.264Z,86.2244
2019-04-26T09:19:19.483Z,86.1206
2019-04-26T09:19:30.463Z,86.4258
2019-04-26T09:19:40.269Z,86.5295
2019-04-26T09:19:49.223Z,86.3220
2019-04-26T09:20:07.049Z,86.4258
2019-04-26T09:20:09.608Z,86.5295
2019-04-26T09:20:28.783Z,86.6333
2019-04-26T09:20:30.012Z,86.9446
2019-04-26T09:20:42.799Z,87.7686
2019-04-26T09:20:49.236Z,87.9333
2019-04-26T09:21:00.279Z,87.4207
2019-04-26T09:21:09.305Z,86.5967
2019-04-26T09:21:20.263Z,85.8704
2019-04-26T09:21:29.254Z,85.5652
2019-04-26T09:21:41.304Z,85.6689
2019-04-26T09:21:53.716Z,85.7727
2019-04-26T09:22:13.279Z,85.2966
2019-04-26T09:22:22.563Z,85.0891
2019-04-26T09:22:29.543Z,85.2966
2019-04-26T09:22:39.235Z,85.7056
2019-04-26T09:23:03.828Z,86.3220
2019-04-26T09:23:10.301Z,86.4258
2019-04-26T09:23:19.336Z,86.2244
2019-04-26T09:23:39.788Z,86.2244
2019-04-26T09:23:40.281Z,86.3220
2019-04-26T09:23:52.046Z,86.7004
2019-04-26T09:24:10.276Z,86.7004
2019-04-26T09:24:20.983Z,86.4929
2019-04-26T09:24:31.269Z,86.1816
2019-04-26T09:24:39.303Z,86.1816
2019-04-26T09:24:51.266Z,86.0779
2019-04-26T09:25:01.061Z,85.9741
2019-04-26T09:25:09.288Z,85.6689
2019-04-26T09:25:30.233Z,85.7727
2019-04-26T09:25:40.328Z,85.8704
2019-04-26T09:25:58.743Z,85.6689
2019-04-26T09:26:00.247Z,85.7727
2019-04-26T09:26:12.611Z,85.8704
2019-04-26T09:26:29.353Z,85.8704
2019-04-26T09:26:42.499Z,85.8704
2019-04-26T09:26:49.299Z,85.6689
2019-04-26T09:27:00.269Z,85.2539
2019-04-26T09:27:09.247Z,85.0464
2019-04-26T09:27:20.950Z,85.0891
2019-04-26T09:27:29.280Z,85.4980
2019-04-26T09:27:50.238Z,85.9131
2019-04-26T09:28:01.386Z,86.2244
2019-04-26T09:28:10.315Z,86.4258
2019-04-26T09:28:19.226Z,86.8408
2019-04-26T09:28:30.225Z,87.0483
2019-04-26T09:28:39.238Z,86.9446
2019-04-26T09:28:52.936Z,86.5295
2019-04-26T09:28:59.239Z,86.4258
2019-04-26T09:29:10.258Z,86.4929
2019-04-26T09:29:19.378Z,86.7004
2019-04-26T09:29:31.764Z,87.3169
2019-04-26T09:29:41.234Z,88.6536
2019-04-26T09:29:50.217Z,89.1724
2019-04-26T09:30:00.465Z,89.3799
2019-04-26T09:30:10.250Z,88.9648
2019-04-26T09:30:34.013Z,87.6892
2019-04-26T09:30:42.403Z,87.5244
2019-04-26T09:30:51.235Z,87.5244
2019-04-26T09:31:00.265Z,87.4207
2019-04-26T09:31:09.245Z,87.3169
2019-04-26T09:31:21.125Z,87.4207
2019-04-26T09:31:29.253Z,87.6282
2019-04-26T09:31:50.472Z,87.6282
2019-04-26T09:32:00.282Z,87.4207
2019-04-26T09:32:09.261Z,87.1094
2019-04-26T09:32:20.285Z,86.5967
2019-04-26T09:32:29.411Z,86.3892
2019-04-26T09:32:39.978Z,86.0779
2019-04-26T09:32:49.241Z,86.0779
2019-04-26T09:33:09.338Z,85.8704
2019-04-26T09:33:20.326Z,85.8704
2019-04-26T09:33:31.782Z,85.7727
2019-04-26T09:33:41.274Z,85.6689
2019-04-26T09:34:01.245Z,85.4614
2019-04-26T09:34:11.405Z,85.4614
2019-04-26T09:34:19.296Z,85.5652
2019-04-26T09:34:29.548Z,86.0779
2019-04-26T09:34:41.241Z,86.1816
2019-04-26T09:34:54.260Z,86.2854
2019-04-26T09:34:59.329Z,86.3892
2019-04-26T09:35:19.496Z,86.9019
2019-04-26T09:35:30.249Z,87.9944
2019-04-26T09:35:39.279Z,87.5854
2019-04-26T09:35:59.245Z,87.0667
2019-04-26T09:36:10.246Z,87.1704
2019-04-26T09:36:19.286Z,86.8652
2019-04-26T09:36:30.238Z,86.3464
2019-04-26T09:36:39.241Z,85.7300
2019-04-26T09:36:51.245Z,85.2539
2019-04-26T09:37:00.232Z,85.2539
2019-04-26T09:37:20.282Z,85.3577
2019-04-26T09:37:29.270Z,85.6689
2019-04-26T09:37:40.287Z,85.6689
2019-04-26T09:37:49.250Z,85.8704
2019-04-26T09:38:00.280Z,86.0779
2019-04-26T09:38:09.318Z,86.0779
2019-04-26T09:38:20.246Z,86.0779
2019-04-26T09:38:40.304Z,86.3892
2019-04-26T09:38:49.253Z,86.2854
2019-04-26T09:39:03.984Z,86.5967
2019-04-26T09:39:09.836Z,86.7981
2019-04-26T09:39:20.261Z,86.3892
2019-04-26T09:39:29.262Z,86.1816
2019-04-26T09:39:42.023Z,86.1816
2019-04-26T09:39:49.259Z,86.0779
2019-04-26T09:40:10.045Z,86.1816
2019-04-26T09:40:10.925Z,86.2854
2019-04-26T09:40:22.508Z,86.3892
2019-04-26T09:40:30.302Z,87.2131
2019-04-26T09:40:39.276Z,87.3169
2019-04-26T09:40:52.585Z,87.1704
2019-04-26T09:41:00.557Z,87.0667
2019-04-26T09:41:10.221Z,86.9690
2019-04-26T09:41:30.867Z,86.8652
2019-04-26T09:41:39.305Z,87.1704
2019-04-26T09:41:50.217Z,87.0056
2019-04-26T09:42:01.117Z,87.0056
2019-04-26T09:42:10.337Z,86.7981
2019-04-26T09:42:19.400Z,86.7004
2019-04-26T09:42:40.901Z,86.1816
2019-04-26T09:42:51.991Z,86.5967
2019-04-26T09:43:02.431Z,87.5244
2019-04-26T09:43:15.216Z,88.2019
2019-04-26T09:43:20.336Z,88.4094
2019-04-26T09:43:31.389Z,87.9944
2019-04-26T09:43:40.333Z,87.6892
2019-04-26T09:44:00.411Z,87.0667
2019-04-26T09:44:09.261Z,87.0667
2019-04-26T09:44:20.435Z,87.0667
2019-04-26T09:44:30.721Z,86.8652
2019-04-26T09:44:41.441Z,86.9690
2019-04-26T09:44:49.244Z,87.0667
2019-04-26T09:45:00.368Z,86.8652
2019-04-26T09:45:09.282Z,86.5540
2019-04-26T09:45:20.278Z,86.3464
2019-04-26T09:45:29.388Z,86.4502
2019-04-26T09:45:40.308Z,86.3464
2019-04-26T09:45:49.418Z,86.1450
2019-04-26T09:46:00.269Z,86.0413
2019-04-26T09:46:09.288Z,85.7300
2019-04-26T09:46:20.346Z,85.5225
2019-04-26T09:46:29.268Z,85.4187
2019-04-26T09:46:44.196Z,85.4187
2019-04-26T09:46:52.792Z,85.6262
2019-04-26T09:47:01.417Z,86.0413
2019-04-26T09:47:10.294Z,86.1450
2019-04-26T09:47:21.315Z,86.3464
2019-04-26T09:47:30.336Z,86.4502
2019-04-26T09:47:39.338Z,86.4502
2019-04-26T09:47:53.931Z,86.2427
2019-04-26T09:48:00.149Z,86.1450
2019-04-26T09:48:13.528Z,86.1450
2019-04-26T09:48:19.275Z,86.0413
2019-04-26T09:48:30.258Z,86.1450
2019-04-26T09:48:39.299Z,86.2427
2019-04-26T09:48:50.260Z,86.2427
2019-04-26T09:48:59.312Z,85.9375
2019-04-26T09:49:10.320Z,85.7300
2019-04-26T09:49:23.337Z,85.7300
2019-04-26T09:49:30.973Z,85.7300
2019-04-26T09:49:41.127Z,85.6262
2019-04-26T09:49:50.467Z,85.6262
2019-04-26T09:49:59.428Z,85.6262
2019-04-26T09:50:14.970Z,85.6262
2019-04-26T09:50:19.336Z,85.8337
2019-04-26T09:50:31.400Z,86.1450
2019-04-26T09:50:40.377Z,86.4502
2019-04-26T09:50:49.366Z,86.7615
2019-04-26T09:51:00.253Z,87.2742
2019-04-26T09:51:09.388Z,87.4817
2019-04-26T09:51:20.303Z,87.5854
2019-04-26T09:51:29.358Z,87.0667
2019-04-26T09:51:40.513Z,86.5540
2019-04-26T09:51:49.552Z,86.4502
2019-04-26T09:52:00.320Z,86.4502
2019-04-26T09:52:09.426Z,86.7615
2019-04-26T09:52:20.378Z,87.7930
2019-04-26T09:52:29.393Z,88.3057
2019-04-26T09:52:40.298Z,88.4094
2019-04-26T09:52:49.266Z,88.2629
2019-04-26T09:53:00.248Z,87.0300
2019-04-26T09:53:09.330Z,86.0413
2019-04-26T09:53:20.261Z,85.5225
2019-04-26T09:53:29.489Z,85.4187
2019-04-26T09:53:43.282Z,85.4187
2019-04-26T09:53:50.030Z,85.4187
2019-04-26T09:54:01.409Z,85.4187
2019-04-26T09:54:11.276Z,85.2173
2019-04-26T09:54:19.428Z,85.1135
2019-04-26T09:54:30.396Z,85.4187
2019-04-26T09:54:39.959Z,85.6262
2019-04-26T09:54:50.350Z,85.9375
2019-04-26T09:54:59.571Z,85.8337
2019-04-26T09:55:10.969Z,85.6262
2019-04-26T09:55:19.329Z,85.2539
2019-04-26T09:55:35.507Z,85.2539
2019-04-26T09:55:39.376Z,85.4614
2019-04-26T09:55:49.957Z,85.6689
2019-04-26T09:55:59.449Z,85.6262
2019-04-26T09:56:10.248Z,85.2539
2019-04-26T09:56:19.272Z,85.2539
2019-04-26T09:56:30.485Z,85.4614
2019-04-26T09:56:39.301Z,85.6262
2019-04-26T09:56:51.278Z,85.9375
2019-04-26T09:57:00.408Z,86.3464
2019-04-26T09:57:11.309Z,86.6577
2019-04-26T09:57:20.340Z,86.5540
2019-04-26T09:57:29.456Z,86.1023
2019-04-26T09:57:40.488Z,85.7910
2019-04-26T09:57:49.248Z,85.5896
2019-04-26T09:58:00.522Z,85.7910
2019-04-26T09:58:09.309Z,86.4136
2019-04-26T09:58:20.354Z,86.8225
2019-04-26T09:58:30.689Z,86.5173
2019-04-26T09:58:40.277Z,86.1023
2019-04-26T09:58:49.231Z,85.7910
2019-04-26T09:59:01.572Z,85.2783
2019-04-26T09:59:09.430Z,84.9670
2019-04-26T09:59:20.970Z,84.5581
2019-04-26T09:59:29.315Z,84.2468
2019-04-26T09:59:41.217Z,84.3506
2019-04-26T09:59:49.364Z,84.3506
2019-04-26T10:00:01.314Z,84.5581
2019-04-26T10:00:10.436Z,84.7656
2019-04-26T10:00:21.286Z,85.3821
2019-04-26T10:00:30.314Z,85.7910
2019-04-26T10:00:39.377Z,85.9985
2019-04-26T10:00:50.263Z,86.2061
2019-04-26T10:00:59.392Z,86.5173
2019-04-26T10:01:10.268Z,86.4136
2019-04-26T10:01:19.752Z,85.9375
2019-04-26T10:01:30.318Z,85.3149
2019-04-26T10:01:39.282Z,85.0098
2019-04-26T10:01:50.340Z,84.9060
2019-04-26T10:01:59.420Z,84.8022
2019-04-26T10:02:10.281Z,84.4910
2019-04-26T10:02:19.959Z,84.3933
2019-04-26T10:02:33.852Z,84.3933
2019-04-26T10:02:39.479Z,84.3933
2019-04-26T10:02:50.729Z,84.3933
2019-04-26T10:02:59.969Z,84.3933
2019-04-26T10:03:10.800Z,84.4910
2019-04-26T10:03:20.127Z,84.6985
2019-04-26T10:03:34.299Z,84.8022
2019-04-26T10:03:40.006Z,84.8022
2019-04-26T10:03:50.044Z,84.6985
2019-04-26T10:04:00.236Z,84.9060
2019-04-26T10:04:09.247Z,84.9060
2019-04-26T10:04:20.979Z,84.6985
2019-04-26T10:04:32.124Z,84.2896
2019-04-26T10:04:39.236Z,84.0820
2019-04-26T10:04:49.333Z,84.2896
2019-04-26T10:05:00.278Z,84.5947
2019-04-26T10:05:11.970Z,84.5947
2019-04-26T10:05:22.154Z,84.3933
2019-04-26T10:05:29.358Z,84.1858
2019-04-26T10:05:40.278Z,84.2896
2019-04-26T10:05:52.111Z,84.5947
2019-04-26T10:06:00.319Z,85.3149
2019-04-26T10:06:09.364Z,85.9375
2019-04-26T10:06:20.252Z,86.1450
2019-04-26T10:06:29.691Z,86.0413
2019-04-26T10:06:41.357Z,85.7300
2019-04-26T10:06:49.357Z,85.5225
2019-04-26T10:07:03.248Z,85.4187
2019-04-26T10:07:10.251Z,85.6262
2019-04-26T10:07:21.264Z,86.1450
2019-04-26T10:07:33.422Z,86.4502
2019-04-26T10:07:39.268Z,86.0413
2019-04-26T10:07:50.297Z,85.3149
2019-04-26T10:07:59.270Z,84.9060
2019-04-26T10:08:12.771Z,84.6985
2019-04-26T10:08:19.279Z,84.9060
2019-04-26T10:08:30.269Z,85.3149
2019-04-26T10:08:39.276Z,85.7300
2019-04-26T10:08:52.418Z,86.1450
2019-04-26T10:08:59.308Z,85.9741
2019-04-26T10:09:10.253Z,85.7300
2019-04-26T10:09:21.244Z,85.7727
2019-04-26T10:09:30.986Z,85.7727
2019-04-26T10:09:39.287Z,85.8704
2019-04-26T10:09:51.711Z,85.9375
2019-04-26T10:10:00.946Z,86.1816
2019-04-26T10:10:22.114Z,86.3892
2019-04-26T10:10:23.166Z,86.7004
2019-04-26T10:10:31.029Z,86.9019
2019-04-26T10:10:39.268Z,86.9019
2019-04-26T10:10:51.775Z,87.0056
2019-04-26T10:10:59.297Z,86.7004
2019-04-26T10:11:11.256Z,86.3892
2019-04-26T10:11:20.274Z,86.1450
2019-04-26T10:11:29.371Z,85.8704
2019-04-26T10:11:43.591Z,85.6689
2019-04-26T10:11:49.338Z,85.3577
2019-04-26T10:12:00.493Z,85.2539
2019-04-26T10:12:09.364Z,85.3577
2019-04-26T10:12:20.286Z,85.5652
2019-04-26T10:12:30.308Z,85.3577
2019-04-26T10:12:40.279Z,85.0464
2019-04-26T10:12:53.258Z,84.8389
2019-04-26T10:13:00.648Z,84.8389
2019-04-26T10:13:09.308Z,84.9426
2019-04-26T10:13:20.277Z,85.2539
2019-04-26T10:13:29.271Z,85.3577
2019-04-26T10:13:40.378Z,85.1501
2019-04-26T10:13:50.229Z,85.0464
2019-04-26T10:14:01.057Z,85.3149
2019-04-26T10:14:09.318Z,85.4187
2019-04-26T10:14:20.414Z,85.7300
2019-04-26T10:14:29.972Z,86.3464
2019-04-26T10:14:39.119Z,86.1450
2019-04-26T10:14:50.977Z,85.8337
2019-04-26T10:15:01.352Z,86.1450
2019-04-26T10:15:10.350Z,86.1450
2019-04-26T10:15:22.499Z,86.1450
2019-04-26T10:15:29.197Z,86.0413
2019-04-26T10:15:39.287Z,85.7300
2019-04-26T10:15:50.296Z,85.8337
2019-04-26T10:16:02.502Z,86.0413
2019-04-26T10:16:10.311Z,86.1450
2019-04-26T10:16:19.271Z,86.0413
2019-04-26T10:16:33.511Z,85.7300
2019-04-26T10:16:42.188Z,85.6689
2019-04-26T10:16:50.313Z,85.7300
2019-04-26T10:16:59.391Z,85.4187
2019-04-26T10:17:11.458Z,85.0464
2019-04-26T10:17:19.331Z,84.8389
2019-04-26T10:17:30.366Z,84.6375
2019-04-26T10:17:39.353Z,84.6375
2019-04-26T10:17:51.154Z,84.3262
2019-04-26T10:18:00.139Z,84.3262
2019-04-26T10:18:11.344Z,84.7412
2019-04-26T10:18:23.847Z,84.8389
2019-04-26T10:18:32.079Z,85.0464
2019-04-26T10:18:40.344Z,85.2539
2019-04-26T10:18:49.416Z,85.5652
2019-04-26T10:19:00.335Z,85.7727
2019-04-26T10:19:09.989Z,86.0779
2019-04-26T10:19:20.355Z,86.7981
2019-04-26T10:19:31.631Z,86.9019
2019-04-26T10:19:40.419Z,86.7981
2019-04-26T10:19:49.328Z,86.7981
2019-04-26T10:20:00.331Z,86.7004
2019-04-26T10:20:10.161Z,86.4502
2019-04-26T10:20:20.341Z,86.7615
2019-04-26T10:20:29.341Z,86.5540
2019-04-26T10:20:40.319Z,85.6262
2019-04-26T10:20:49.291Z,85.2173
2019-04-26T10:21:00.368Z,84.5947
2019-04-26T10:21:09.268Z,84.1858
2019-04-26T10:21:20.421Z,83.8745
2019-04-26T10:21:29.258Z,83.8745
2019-04-26T10:21:41.270Z,84.0820
2019-04-26T10:21:50.236Z,84.5947
2019-04-26T10:22:01.729Z,85.0098
2019-04-26T10:22:10.256Z,85.4187
2019-04-26T10:22:19.291Z,85.7300
2019-04-26T10:22:30.311Z,85.5225
2019-04-26T10:22:39.319Z,85.6262
2019-04-26T10:22:50.438Z,85.4187
2019-04-26T10:23:00.268Z,85.3577
2019-04-26T10:23:10.238Z,85.3577
2019-04-26T10:23:19.423Z,85.1501
2019-04-26T10:23:30.301Z,85.5652
2019-04-26T10:23:39.282Z,85.8704
2019-04-26T10:23:50.259Z,85.9741
2019-04-26T10:23:59.342Z,85.8704
2019-04-26T10:24:10.380Z,85.7727
2019-04-26T10:24:19.315Z,85.4614
2019-04-26T10:24:30.411Z,85.2539
2019-04-26T10:24:39.291Z,85.0464
2019-04-26T10:24:50.298Z,84.8389
2019-04-26T10:25:02.652Z,84.8389
2019-04-26T10:25:16.714Z,84.8389
2019-04-26T10:25:19.341Z,85.5225
2019-04-26T10:25:29.287Z,86.0413
2019-04-26T10:25:40.601Z,86.2427
2019-04-26T10:25:51.890Z,85.7300
2019-04-26T10:25:59.366Z,85.3149
2019-04-26T10:26:09.329Z,84.6985
2019-04-26T10:26:23.155Z,84.1858
2019-04-26T10:26:29.891Z,84.2896
2019-04-26T10:26:41.241Z,84.5947
2019-04-26T10:26:50.351Z,84.3933
2019-04-26T10:27:03.362Z,84.1858
2019-04-26T10:27:09.289Z,84.3933
2019-04-26T10:27:20.256Z,84.5947
2019-04-26T10:27:29.322Z,84.5947
2019-04-26T10:27:40.902Z,84.3933
2019-04-26T10:27:49.328Z,84.5947
2019-04-26T10:27:59.980Z,85.1135
2019-04-26T10:28:11.860Z,85.7300
2019-04-26T10:28:20.441Z,86.4502
2019-04-26T10:28:29.276Z,86.0413
2019-04-26T10:28:41.538Z,85.2173
2019-04-26T10:28:50.633Z,85.4187
2019-04-26T10:29:01.984Z,85.1135
2019-04-26T10:29:10.252Z,84.6985
2019-04-26T10:29:21.638Z,84.1858
2019-04-26T10:29:30.036Z,84.0820
2019-04-26T10:29:39.360Z,83.9783
2019-04-26T10:29:50.317Z,83.9783
2019-04-26T10:30:07.997Z,83.9783
2019-04-26T10:30:10.261Z,83.8745
2019-04-26T10:30:19.518Z,84.0820
2019-04-26T10:30:30.378Z,84.2896
2019-04-26T10:30:42.387Z,84.3933
2019-04-26T10:30:51.039Z,84.3933
2019-04-26T10:31:02.362Z,84.3933
2019-04-26T10:31:13.498Z,84.0820
2019-04-26T10:31:19.254Z,84.0820
2019-04-26T10:31:30.521Z,83.6670
2019-04-26T10:31:39.312Z,83.2581
2019-04-26T10:31:51.817Z,83.1543
2019-04-26T10:31:59.291Z,83.1909
2019-04-26T10:32:11.380Z,83.2947
2019-04-26T10:32:21.779Z,83.3984
2019-04-26T10:32:31.338Z,83.5022
2019-04-26T10:32:40.245Z,83.6060
2019-04-26T10:32:51.329Z,83.9111
2019-04-26T10:33:02.219Z,84.0149
2019-04-26T10:33:09.352Z,84.1187
2019-04-26T10:33:20.457Z,84.4299
2019-04-26T10:33:32.701Z,84.3933
2019-04-26T10:33:40.394Z,84.4910
2019-04-26T10:33:49.279Z,84.5947
2019-04-26T10:34:00.258Z,85.0098
2019-04-26T10:34:11.909Z,85.2173
2019-04-26T10:34:20.248Z,85.3149
2019-04-26T10:34:29.256Z,85.3149
2019-04-26T10:34:42.654Z,85.5225
2019-04-26T10:34:49.243Z,85.7300
2019-04-26T10:35:00.252Z,86.3464
2019-04-26T10:35:09.278Z,86.7615
2019-04-26T10:35:21.621Z,86.6150
2019-04-26T10:35:29.286Z,86.6150
2019-04-26T10:35:41.247Z,86.0413
2019-04-26T10:35:52.549Z,85.7910
2019-04-26T10:36:01.359Z,85.8337
2019-04-26T10:36:10.328Z,85.9375
2019-04-26T10:36:19.242Z,85.7910
2019-04-26T10:36:31.431Z,85.9375
2019-04-26T10:36:39.397Z,86.3464
2019-04-26T10:36:50.386Z,87.0667
2019-04-26T10:37:06.181Z,88.0981
2019-04-26T10:37:10.253Z,88.2629